Time;durP1;ratioP1;P1;durP2;ratioP2;P2;SDS_P1;SDS_P2;PMS_P1;PMS_P2;Temp;Humidity;BMP_temperature;BMP_pressure;BME280_temperature;BME280_humidity;BME280_pressure;Samples;Min_cycle;Max_cycle;Signal;HPM_P1;HPM_P2
2021/11/06 00:00:51;;;;;;;21.23;3.10;;;;;;;16.53;69.02;101600.94;5116859;27;20432;-81
2021/11/06 00:03:21;;;;;;;21.70;2.92;;;;;;;16.49;68.99;101588.47;5116456;27;20050;-77
2021/11/06 00:05:48;;;;;;;10.80;1.95;;;;;;;16.48;69.12;101596.44;5135628;27;20035;-82
2021/11/06 00:08:16;;;;;;;17.50;2.90;;;;;;;16.42;69.02;101591.97;5117313;27;20070;-81
2021/11/06 00:10:44;;;;;;;14.30;2.45;;;;;;;16.37;69.18;101593.75;5135428;27;20035;-80
2021/11/06 00:13:12;;;;;;;15.38;2.47;;;;;;;16.30;69.43;101592.81;5117039;27;20058;-81
2021/11/06 00:15:39;;;;;;;17.55;2.42;;;;;;;16.21;69.71;101591.88;5135138;27;20509;-81
2021/11/06 00:18:07;;;;;;;20.42;3.35;;;;;;;16.22;70.11;101588.31;5116633;27;20073;-81
2021/11/06 00:20:36;;;;;;;19.42;3.10;;;;;;;16.21;69.93;101583.91;5116747;27;20039;-80
2021/11/06 00:23:03;;;;;;;16.48;2.60;;;;;;;16.24;69.84;101586.56;5134447;27;20489;-81
2021/11/06 00:25:31;;;;;;;16.23;2.72;;;;;;;16.25;69.77;101581.25;5134772;27;20122;-81
2021/11/06 00:28:00;;;;;;;16.38;2.22;;;;;;;16.14;69.88;101584.75;5134750;27;20043;-81
2021/11/06 00:30:27;;;;;;;18.23;2.83;;;;;;;16.14;70.08;101585.63;5134340;27;20039;-81
2021/11/06 00:32:55;;;;;;;17.02;3.55;;;;;;;16.15;69.84;101591.81;5116379;27;20088;-79
2021/11/06 00:35:24;;;;;;;19.75;2.85;;;;;;;16.14;70.00;101590.06;5134419;27;20120;-82
2021/11/06 00:37:53;;;;;;;19.02;2.60;;;;;;;16.15;70.02;101595.38;5134445;27;20042;-82
2021/11/06 00:40:21;;;;;;;15.73;2.67;;;;;;;16.17;70.07;101590.97;5134555;27;20046;-81
2021/11/06 00:42:48;;;;;;;21.90;3.13;;;;;;;16.11;70.19;101595.34;5134645;27;20070;-81
2021/11/06 00:45:16;;;;;;;15.05;2.10;;;;;;;16.05;70.24;101600.66;5134369;27;20045;-82
2021/11/06 00:47:44;;;;;;;19.67;2.90;;;;;;;16.00;70.42;101597.97;5116102;27;20501;-81
2021/11/06 00:50:15;;;;;;;13.95;2.47;;;;;;;16.05;70.34;101601.53;5116078;27;20378;-80
2021/11/06 00:52:43;;;;;;;17.23;2.83;;;;;;;16.01;70.30;101598.88;5116159;27;20110;-81
2021/11/06 00:55:14;;;;;;;13.32;2.70;;;;;;;15.89;70.70;101600.53;5116071;27;20486;-80
2021/11/06 00:57:41;;;;;;;16.25;3.35;;;;;;;15.91;70.94;101598.78;5134014;27;20039;-81
2021/11/06 01:00:12;;;;;;;23.17;5.00;;;;;;;15.88;70.82;101598.75;5134061;27;20056;-81
2021/11/06 01:02:40;;;;;;;15.32;2.60;;;;;;;15.89;70.83;101591.66;5134176;27;20051;-81
2021/11/06 01:05:10;;;;;;;21.42;3.60;;;;;;;15.85;71.06;101593.41;5116040;27;20027;-81
2021/11/06 01:07:38;;;;;;;16.25;2.60;;;;;;;15.82;71.14;101589.81;5133748;27;20050;-81
2021/11/06 01:10:07;;;;;;;16.23;2.75;;;;;;;15.86;71.10;101591.66;5115468;27;20403;-81
2021/11/06 01:12:37;;;;;;;18.42;3.90;;;;;;;15.84;70.89;101582.75;5115775;27;20039;-81
2021/11/06 01:15:07;;;;;;;13.27;3.10;;;;;;;15.77;70.94;101579.16;5115687;27;20046;-81
2021/11/06 01:17:34;;;;;;;18.98;3.65;;;;;;;15.75;71.27;101577.38;5133503;27;20054;-81
2021/11/06 01:20:02;;;;;;;14.13;2.67;;;;;;;15.78;71.18;101580.03;5133647;27;20519;-81
2021/11/06 01:22:30;;;;;;;32.05;12.13;;;;;;;15.80;71.14;101578.28;5115371;27;20054;-80
2021/11/06 01:24:57;;;;;;;16.92;3.63;;;;;;;15.82;71.02;101573.84;5133371;27;20047;-81
2021/11/06 01:27:25;;;;;;;39.67;13.05;;;;;;;15.67;71.20;101577.31;5133610;27;20387;-81
2021/11/06 01:29:54;;;;;;;32.10;11.57;;;;;;;15.67;71.46;101573.75;5098017;28;20050;-81
2021/11/06 01:32:22;;;;;;;53.58;20.92;;;;;;;15.65;71.62;101584.38;5115192;27;20039;-80
2021/11/06 01:34:50;;;;;;;28.30;9.45;;;;;;;15.59;71.79;101573.69;5115556;27;20092;-76
2021/11/06 01:37:18;;;;;;;48.42;20.40;;;;;;;15.62;71.83;101570.16;5115786;27;20043;-81
2021/11/06 01:39:46;;;;;;;51.70;17.13;;;;;;;15.67;71.54;101573.75;5133552;27;20478;-81
2021/11/06 01:42:13;;;;;;;21.35;6.10;;;;;;;15.68;71.26;101583.53;5133431;27;20046;-80
2021/11/06 01:44:41;;;;;;;17.10;3.38;;;;;;;15.67;71.30;101579.06;5133245;27;20063;-81
2021/11/06 01:47:10;;;;;;;42.80;11.45;;;;;;;15.68;71.25;101576.44;5133463;27;20039;-81
2021/11/06 01:49:39;;;;;;;29.27;7.03;;;;;;;15.67;71.14;101581.75;5133342;27;20066;-81
2021/11/06 01:52:07;;;;;;;24.75;7.13;;;;;;;15.63;71.23;101585.25;5133238;27;20058;-82
2021/11/06 01:54:35;;;;;;;22.88;7.35;;;;;;;15.59;71.57;101578.13;5133052;27;20058;-82
2021/11/06 01:57:03;;;;;;;29.20;7.25;;;;;;;15.63;71.50;101586.13;5133221;27;20490;-82
2021/11/06 01:59:31;;;;;;;40.08;9.05;;;;;;;15.63;71.37;101578.16;5133213;27;20047;-81
2021/11/06 02:01:59;;;;;;;35.25;10.10;;;;;;;15.62;71.38;101575.50;5114981;27;20035;-82
2021/11/06 02:04:28;;;;;;;45.22;11.90;;;;;;;15.62;71.23;101571.03;5133130;27;20162;-82
2021/11/06 02:06:56;;;;;;;36.63;8.27;;;;;;;15.54;71.10;101571.00;5132815;27;20043;-81
2021/11/06 02:09:24;;;;;;;24.17;7.60;;;;;;;15.46;71.36;101569.09;5114757;27;20039;-82
2021/11/06 02:11:51;;;;;;;23.13;5.22;;;;;;;15.35;71.80;101570.78;5132841;27;20112;-81
2021/11/06 02:14:19;;;;;;;23.10;6.25;;;;;;;15.40;71.92;101572.63;5133471;28;20069;-82
2021/11/06 02:16:47;;;;;;;19.38;4.50;;;;;;;15.44;72.04;101569.09;5115190;28;20398;-81
2021/11/06 02:19:14;;;;;;;18.00;3.67;;;;;;;15.49;71.79;101572.66;5132887;28;20130;-80
2021/11/06 02:21:44;;;;;;;12.20;2.55;;;;;;;15.43;72.01;101566.41;5132787;28;20050;-81
2021/11/06 02:24:12;;;;;;;15.68;4.45;;;;;;;15.43;71.77;101566.41;5133106;28;20043;-81
2021/11/06 02:26:40;;;;;;;27.67;8.35;;;;;;;15.44;71.85;101566.44;5132942;28;20047;-81
2021/11/06 02:29:07;;;;;;;30.77;5.68;;;;;;;15.41;71.92;101566.41;5132723;28;20043;-82
2021/11/06 02:31:35;;;;;;;16.40;3.55;;;;;;;15.36;72.05;101562.81;5114483;28;20053;-82
2021/11/06 02:34:03;;;;;;;19.70;4.53;;;;;;;15.40;72.19;101561.97;5132335;28;20060;-81
2021/11/06 02:36:31;;;;;;;15.90;3.70;;;;;;;15.30;72.29;101560.09;5114690;28;20047;-81
2021/11/06 02:39:01;;;;;;;16.33;2.97;;;;;;;15.26;72.80;101558.28;5132651;28;20040;-81
2021/11/06 02:41:29;;;;;;;28.83;8.38;;;;;;;15.29;72.91;101566.31;5133052;27;20127;-81
2021/11/06 02:43:57;;;;;;;37.90;10.68;;;;;;;15.29;72.73;101562.75;5136915;27;20035;-80
2021/11/06 02:46:24;;;;;;;22.63;6.88;;;;;;;15.31;72.64;101560.97;5118950;27;20037;-80
2021/11/06 02:48:52;;;;;;;24.88;6.43;;;;;;;15.29;72.66;101554.78;5136531;27;20046;-80
2021/11/06 02:51:20;;;;;;;25.30;7.28;;;;;;;15.25;72.79;101551.19;5118492;27;20039;-76
2021/11/06 02:53:48;;;;;;;18.83;5.90;;;;;;;15.25;73.03;101558.28;5119038;27;20047;-81
2021/11/06 02:56:17;;;;;;;21.45;4.85;;;;;;;15.24;73.00;101554.72;5136639;27;20053;-80
2021/11/06 02:58:44;;;;;;;18.35;3.90;;;;;;;15.22;73.43;101550.28;5136309;27;20416;-80
2021/11/06 03:01:12;;;;;;;21.08;5.47;;;;;;;15.11;73.61;101556.38;5136529;27;20043;-80
2021/11/06 03:03:39;;;;;;;22.35;7.65;;;;;;;15.12;73.81;101560.81;5136306;27;20043;-81
2021/11/06 03:06:07;;;;;;;32.50;8.52;;;;;;;15.13;73.83;101556.38;5118356;27;20035;-80
2021/11/06 03:08:35;;;;;;;24.30;6.47;;;;;;;15.10;73.64;101559.00;5118465;27;20064;-81
2021/11/06 03:11:02;;;;;;;32.17;9.82;;;;;;;15.16;73.50;101554.63;5136335;27;20067;-80
2021/11/06 03:13:32;;;;;;;21.13;5.57;;;;;;;15.14;73.22;101559.06;5136083;27;20039;-81
2021/11/06 03:16:00;;;;;;;20.38;7.10;;;;;;;15.19;73.44;101555.56;5136495;27;20461;-81
2021/11/06 03:18:27;;;;;;;17.27;4.63;;;;;;;15.22;73.45;101555.59;5118024;27;20035;-81
2021/11/06 03:20:55;;;;;;;17.45;3.78;;;;;;;15.25;73.50;101556.50;5118069;27;20035;-81
2021/11/06 03:23:27;;;;;;;12.70;3.90;;;;;;;15.26;73.47;101562.72;5136137;27;20497;-81
2021/11/06 03:25:55;;;;;;;14.65;4.60;;;;;;;15.15;73.81;101558.19;5135796;27;20138;-81
2021/11/06 03:28:23;;;;;;;14.63;3.58;;;;;;;15.03;74.15;101559.84;5117975;27;20058;-80
2021/11/06 03:30:52;;;;;;;18.63;3.92;;;;;;;15.02;74.34;101564.28;5135755;27;20118;-77
2021/11/06 03:33:20;;;;;;;16.17;3.85;;;;;;;15.02;74.38;101563.38;5117713;27;20059;-71
2021/11/06 03:35:48;;;;;;;11.13;3.08;;;;;;;14.97;74.63;101571.28;5117988;27;20036;-81
2021/11/06 03:38:16;;;;;;;11.00;3.25;;;;;;;14.98;75.01;101570.41;5117437;27;20490;-81
2021/11/06 03:40:44;;;;;;;15.38;3.00;;;;;;;15.01;75.12;101578.44;5135663;27;20036;-81
2021/11/06 03:43:11;;;;;;;13.95;4.05;;;;;;;15.15;74.74;101563.53;5135531;27;20123;-81
2021/11/06 03:45:39;;;;;;;13.27;3.35;;;;;;;15.21;74.59;101569.78;5135557;27;20116;-80
2021/11/06 03:48:08;;;;;;;14.60;3.47;;;;;;;15.05;74.98;101572.25;5117532;27;20039;-82
2021/11/06 03:50:36;;;;;;;18.65;4.35;;;;;;;14.89;75.92;101565.03;5135211;27;20062;-81
2021/11/06 03:53:05;;;;;;;17.80;5.38;;;;;;;14.90;76.79;101566.78;5116580;28;20375;-81
2021/11/06 03:55:33;;;;;;;14.95;5.35;;;;;;;14.97;76.89;101568.63;5135396;27;20042;-81
2021/11/06 03:58:01;;;;;;;11.77;3.78;;;;;;;14.99;76.67;101568.66;5100569;27;20463;-81
2021/11/06 04:00:29;;;;;;;15.13;3.75;;;;;;;14.99;76.46;101569.53;5117189;27;20077;-81
2021/11/06 04:02:57;;;;;;;15.30;3.88;;;;;;;15.01;76.56;101572.22;5117081;27;20092;-80
2021/11/06 04:05:27;;;;;;;12.57;3.00;;;;;;;15.00;76.67;101574.00;5134988;27;20042;-81
2021/11/06 04:07:54;;;;;;;11.20;3.30;;;;;;;15.05;77.01;101574.94;5134999;27;20096;-80
2021/11/06 04:10:22;;;;;;;13.05;3.90;;;;;;;15.08;77.13;101572.31;5135087;27;20039;-81
2021/11/06 04:12:50;;;;;;;14.93;4.00;;;;;;;15.12;77.37;101571.44;5117132;27;20039;-81
2021/11/06 04:15:17;;;;;;;11.63;3.85;;;;;;;15.19;77.82;101575.06;5134948;27;20046;-80
2021/11/06 04:17:47;;;;;;;21.67;4.22;;;;;;;15.13;77.99;101567.91;5134922;27;20482;-81
2021/11/06 04:20:15;;;;;;;14.55;3.92;;;;;;;15.13;78.63;101573.25;5116861;27;20047;-81
2021/11/06 04:22:44;;;;;;;14.90;3.97;;;;;;;15.21;78.94;101580.41;5134893;27;20039;-80
2021/11/06 04:25:12;;;;;;;17.30;5.10;;;;;;;15.24;78.64;101585.75;5116671;27;20059;-80
2021/11/06 04:27:39;;;;;;;15.98;5.57;;;;;;;15.23;78.78;101582.19;5116189;27;20123;-79
2021/11/06 04:30:08;;;;;;;18.52;5.78;;;;;;;15.16;79.05;101585.69;5115908;27;20031;-80
2021/11/06 04:32:35;;;;;;;17.30;4.38;;;;;;;15.27;79.59;101586.69;5134546;27;20074;-81
2021/11/06 04:35:03;;;;;;;15.00;5.18;;;;;;;15.39;79.77;101589.44;5134368;27;20035;-80
2021/11/06 04:37:31;;;;;;;13.70;4.88;;;;;;;15.33;79.66;101589.41;5116396;27;20088;-80
2021/11/06 04:40:00;;;;;;;15.25;3.90;;;;;;;15.31;79.94;101591.13;5116410;27;20046;-80
2021/11/06 04:42:28;;;;;;;24.80;5.68;;;;;;;15.43;80.29;101591.25;5115914;27;20046;-79
2021/11/06 04:44:55;;;;;;;17.42;4.68;;;;;;;15.52;80.47;101595.78;5134167;27;20431;-79
2021/11/06 04:47:23;;;;;;;15.85;4.07;;;;;;;15.68;81.01;101595.06;5116012;27;20059;-80
2021/11/06 04:49:51;;;;;;;11.82;3.80;;;;;;;15.83;81.13;101599.59;5134015;27;20123;-74
2021/11/06 04:52:19;;;;;;;8.55;3.55;;;;;;;15.86;81.28;101594.31;5134084;27;20092;-80
2021/11/06 04:54:47;;;;;;;10.77;4.28;;;;;;;15.88;81.69;101590.75;5133804;27;20070;-79
2021/11/06 04:57:16;;;;;;;16.48;4.53;;;;;;;16.00;81.95;101605.06;5133623;27;20100;-79
2021/11/06 04:59:44;;;;;;;12.88;4.18;;;;;;;16.12;81.94;101594.47;5133818;27;20095;-79
2021/11/06 05:02:12;;;;;;;16.15;5.72;;;;;;;16.08;82.00;101596.22;5115743;27;20047;-79
2021/11/06 05:04:39;;;;;;;15.00;3.90;;;;;;;15.97;81.78;101597.94;5115753;27;20042;-80
2021/11/06 05:07:07;;;;;;;18.45;4.28;;;;;;;16.10;82.15;101596.25;5133580;27;20039;-79
2021/11/06 05:09:35;;;;;;;15.70;5.53;;;;;;;16.19;82.23;101601.63;5115383;27;20494;-79
2021/11/06 05:12:03;;;;;;;13.60;3.97;;;;;;;16.23;82.26;101611.41;5115461;27;20086;-80
2021/11/06 05:14:32;;;;;;;14.63;5.13;;;;;;;16.25;82.06;101602.56;5133462;27;20062;-79
2021/11/06 05:16:59;;;;;;;12.90;4.15;;;;;;;16.21;82.07;101611.41;5115450;27;20062;-79
2021/11/06 05:19:27;;;;;;;13.30;5.00;;;;;;;16.23;82.08;101608.75;5133322;27;20062;-79
2021/11/06 05:21:54;;;;;;;19.20;6.10;;;;;;;16.22;82.20;101618.50;5115279;27;20079;-79
2021/11/06 05:24:22;;;;;;;15.52;5.75;;;;;;;16.25;82.33;101621.22;5133348;27;20031;-79
2021/11/06 05:26:50;;;;;;;21.52;7.28;;;;;;;16.17;82.49;101622.03;5115697;27;20122;-79
2021/11/06 05:29:19;;;;;;;25.90;11.15;;;;;;;16.23;82.81;101617.63;5133592;27;20051;-80
2021/11/06 05:31:48;;;;;;;20.13;8.05;;;;;;;16.47;83.55;101627.56;5133289;27;20044;-80
2021/11/06 05:34:16;;;;;;;22.35;6.25;;;;;;;16.71;84.75;101622.38;5115468;27;20043;-80
2021/11/06 05:36:44;;;;;;;11.50;4.10;;;;;;;16.96;85.78;101622.47;5133346;27;20118;-81
2021/11/06 05:39:11;;;;;;;15.30;5.28;;;;;;;17.20;86.52;101617.19;5115303;27;20047;-81
2021/11/06 05:41:39;;;;;;;11.18;3.97;;;;;;;17.50;87.05;101630.59;5115015;27;20482;-81
2021/11/06 05:44:07;;;;;;;14.00;4.70;;;;;;;17.71;87.45;101632.44;5133254;27;20043;-81
2021/11/06 05:46:34;;;;;;;13.10;4.05;;;;;;;17.94;87.77;101640.44;5098733;27;20555;-81
2021/11/06 05:49:03;;;;;;;15.48;3.97;;;;;;;18.25;88.06;101642.16;5133383;27;20069;-80
2021/11/06 05:51:31;;;;;;;16.00;4.70;;;;;;;18.49;88.13;101651.06;5132962;27;20096;-80
2021/11/06 05:53:59;;;;;;;12.73;5.07;;;;;;;18.67;88.45;101649.25;5133346;27;20107;-81
2021/11/06 05:56:26;;;;;;;15.55;3.10;;;;;;;18.87;88.29;101657.19;5133101;27;20490;-81
2021/11/06 05:58:54;;;;;;;14.00;2.75;;;;;;;19.09;87.77;101660.66;5133028;27;20039;-80
2021/11/06 06:01:22;;;;;;;12.65;4.68;;;;;;;19.37;86.75;101656.03;5132581;27;20118;-80
2021/11/06 06:03:50;;;;;;;15.70;3.83;;;;;;;19.62;85.91;101652.34;5115452;27;20092;-81
2021/11/06 06:06:19;;;;;;;10.45;3.15;;;;;;;19.87;84.81;101653.94;5133201;27;20047;-81
2021/11/06 06:08:47;;;;;;;12.68;4.50;;;;;;;20.11;83.90;101652.81;5114955;28;20483;-81
2021/11/06 06:11:15;;;;;;;12.77;3.10;;;;;;;20.33;82.61;101658.00;5132814;27;20038;-81
2021/11/06 06:13:42;;;;;;;9.98;2.63;;;;;;;20.51;81.09;101657.81;5133080;27;20494;-81
2021/11/06 06:16:10;;;;;;;13.20;3.50;;;;;;;20.80;79.42;101658.38;5114485;28;20368;-81
2021/11/06 06:18:38;;;;;;;8.05;3.67;;;;;;;20.99;77.54;101664.41;5132751;28;20047;-81
2021/11/06 06:21:05;;;;;;;14.63;3.00;;;;;;;21.17;76.50;101668.66;5132153;28;20543;-81
2021/11/06 06:23:35;;;;;;;17.55;2.80;;;;;;;21.37;75.53;101666.59;5132747;28;20035;-81
2021/11/06 06:26:03;;;;;;;14.25;2.83;;;;;;;21.58;74.35;101670.78;5132687;28;20043;-81
2021/11/06 06:28:30;;;;;;;13.43;2.53;;;;;;;21.76;73.24;101671.38;5114652;28;20035;-80
2021/11/06 06:30:58;;;;;;;12.30;2.50;;;;;;;21.98;72.17;101669.25;5132385;28;20521;-82
2021/11/06 06:33:26;;;;;;;18.00;2.97;;;;;;;22.24;71.24;101669.69;5097996;28;20035;-80
2021/11/06 06:35:55;;;;;;;17.23;2.72;;;;;;;22.46;70.91;101670.16;5114385;28;20042;-81
2021/11/06 06:38:23;;;;;;;16.20;2.35;;;;;;;22.64;70.34;101667.09;5132201;28;20047;-80
2021/11/06 06:40:53;;;;;;;13.15;2.60;;;;;;;22.85;69.56;101671.22;5133060;28;20085;-83
2021/11/06 06:43:20;;;;;;;20.58;3.08;;;;;;;23.11;69.17;101672.47;5114505;28;20125;-81
2021/11/06 06:45:48;;;;;;;13.48;2.60;;;;;;;23.32;67.94;101670.19;5132585;28;20039;-82
2021/11/06 06:48:15;;;;;;;9.40;2.97;;;;;;;23.65;67.15;101664.97;5132504;28;20039;-81
2021/11/06 06:50:46;;;;;;;15.20;2.63;;;;;;;23.96;65.99;101666.00;5132214;28;20051;-81
2021/11/06 06:53:14;;;;;;;15.57;2.28;;;;;;;24.19;64.62;101666.34;5132457;28;20550;-80
2021/11/06 06:55:42;;;;;;;17.98;2.72;;;;;;;24.46;62.08;101666.53;5132237;28;20051;-81
2021/11/06 06:58:11;;;;;;;10.40;2.15;;;;;;;24.57;61.60;101670.69;5114351;28;20122;-81
2021/11/06 07:00:39;;;;;;;14.68;2.20;;;;;;;24.52;61.36;101664.53;5132325;28;20040;-81
2021/11/06 07:03:06;;;;;;;13.48;2.40;;;;;;;24.68;60.83;101658.72;5132305;28;20398;-81
2021/11/06 07:05:34;;;;;;;12.13;2.40;;;;;;;24.82;60.17;101654.69;5132285;28;20047;-81
2021/11/06 07:08:04;;;;;;;17.55;2.75;;;;;;;24.84;59.63;101655.53;5132170;28;20031;-81
2021/11/06 07:10:31;;;;;;;14.63;2.65;;;;;;;24.94;59.40;101667.00;5131668;28;20035;-81
2021/11/06 07:12:59;;;;;;;11.05;2.05;;;;;;;25.05;59.03;101664.84;5131565;28;20035;-79
2021/11/06 07:15:28;;;;;;;12.55;2.28;;;;;;;25.19;58.81;101653.63;5132088;28;20057;-79
2021/11/06 07:17:56;;;;;;;15.60;2.50;;;;;;;25.24;58.48;101652.56;5131993;28;20043;-81
2021/11/06 07:20:23;;;;;;;15.30;2.42;;;;;;;25.25;57.70;101654.34;5132143;28;20482;-82
2021/11/06 07:22:52;;;;;;;28.13;4.32;;;;;;;25.40;57.28;101659.25;5114524;28;20045;-82
2021/11/06 07:25:20;;;;;;;20.15;2.30;;;;;;;25.51;57.03;101649.91;5132416;28;20510;-81
2021/11/06 07:27:48;;;;;;;10.52;2.38;;;;;;;25.66;56.77;101657.59;5132388;27;20509;-80
2021/11/06 07:30:17;;;;;;;16.50;4.05;;;;;;;25.74;56.37;101658.19;5135283;27;20091;-83
2021/11/06 07:32:46;;;;;;;15.43;2.63;;;;;;;25.86;56.44;101652.41;5136133;27;20055;-83
2021/11/06 07:35:13;;;;;;;14.80;2.17;;;;;;;25.99;55.62;101652.88;5136091;27;20096;-81
2021/11/06 07:37:41;;;;;;;13.82;2.15;;;;;;;25.96;55.76;101650.25;5117959;27;20053;-83
2021/11/06 07:40:11;;;;;;;13.00;2.13;;;;;;;26.01;55.68;101648.25;5136179;27;20031;-84
2021/11/06 07:42:40;;;;;;;11.02;2.03;;;;;;;26.12;55.68;101652.38;5135607;27;20047;-82
2021/11/06 07:45:10;;;;;;;18.08;2.60;;;;;;;26.24;55.62;101648.41;5117665;27;20066;-85
2021/11/06 07:47:38;;;;;;;14.05;2.28;;;;;;;26.16;55.40;101642.34;5135742;27;20050;-86
2021/11/06 07:50:09;;;;;;;14.80;2.88;;;;;;;26.33;54.89;101658.00;5135922;27;20043;-90
2021/11/06 07:52:37;;;;;;;13.35;2.35;;;;;;;26.25;54.62;101654.72;5135376;27;20043;-86
2021/11/06 07:55:05;;;;;;;13.77;1.92;;;;;;;26.34;54.46;101651.66;5135649;27;20031;-87
2021/11/06 07:57:33;;;;;;;17.38;2.17;;;;;;;26.42;54.44;101650.44;5135197;27;20035;-85
2021/11/06 08:00:03;;;;;;;13.68;2.55;;;;;;;26.56;53.95;101647.25;5132931;27;20088;-88
2021/11/06 08:02:38;;;;;;;13.85;2.22;;;;;;;26.59;53.91;101649.81;5134879;27;20043;-90
2021/11/06 08:05:08;;;;;;;10.15;2.63;;;;;;;26.63;54.01;101645.19;5134723;27;20043;-91
2021/11/06 08:07:36;;;;;;;11.98;3.35;;;;;;;26.75;54.08;101656.47;5135390;27;20074;-94
2021/11/06 08:10:08;;;;;;;17.55;3.53;;;;;;;26.87;53.85;101666.84;5117342;27;20039;-90
2021/11/06 08:12:37;;;;;;;9.80;2.35;;;;;;;26.79;53.57;101662.63;5135225;27;20099;-93
2021/11/06 08:15:05;;;;;;;15.70;3.75;;;;;;;26.86;53.68;101659.66;5135326;27;20042;-87
2021/11/06 08:17:33;;;;;;;12.43;2.40;;;;;;;26.94;53.58;101659.41;5117219;27;20471;-89
2021/11/06 08:20:00;;;;;;;10.05;2.58;;;;;;;27.05;53.28;101653.56;5134808;27;20043;-88
2021/11/06 08:22:29;;;;;;;12.25;2.55;;;;;;;27.05;52.77;101659.88;5134764;27;20047;-88
2021/11/06 08:24:57;;;;;;;14.18;2.60;;;;;;;27.14;52.72;101661.34;5116936;27;20042;-86
2021/11/06 08:27:25;;;;;;;17.42;2.58;;;;;;;27.27;52.84;101654.50;5134707;27;20047;-88
2021/11/06 08:29:52;;;;;;;13.98;2.38;;;;;;;27.32;52.57;101666.03;5134474;27;20096;-83
2021/11/06 08:32:20;;;;;;;11.75;2.83;;;;;;;27.28;52.92;101669.84;5135124;27;20527;-86
2021/11/06 08:34:47;;;;;;;13.57;2.90;;;;;;;27.32;52.97;101655.19;5116939;27;20131;-87
2021/11/06 08:37:15;;;;;;;10.98;2.15;;;;;;;27.30;52.91;101659.81;5116774;27;20031;-86
2021/11/06 08:39:44;;;;;;;12.60;2.42;;;;;;;27.27;52.99;101665.34;5134480;27;20043;-88
2021/11/06 08:42:13;;;;;;;15.27;2.40;;;;;;;27.26;53.27;101663.56;5134950;27;20073;-85
2021/11/06 08:44:40;;;;;;;8.75;2.72;;;;;;;27.33;53.01;101657.84;5134817;27;20043;-86
2021/11/06 08:47:08;;;;;;;18.25;2.47;;;;;;;27.37;53.14;101651.34;5134225;27;20031;-88
2021/11/06 08:49:36;;;;;;;10.98;2.28;;;;;;;27.40;53.22;101650.34;5134661;27;20047;-92
2021/11/06 08:52:04;;;;;;;10.05;2.03;;;;;;;27.40;53.51;101652.19;5134298;27;20066;-88
2021/11/06 08:54:31;;;;;;;16.35;2.63;;;;;;;27.55;53.57;101655.22;5116583;27;20563;-89
2021/11/06 08:57:01;;;;;;;6.03;1.77;;;;;;;27.66;53.31;101661.06;5134060;27;20043;-88
2021/11/06 08:59:28;;;;;;;9.57;2.20;;;;;;;27.60;53.75;101655.91;5134374;27;20076;-89
2021/11/06 09:01:56;;;;;;;8.45;1.75;;;;;;;27.66;53.73;101666.50;5134079;27;20045;-90
2021/11/06 09:04:25;;;;;;;9.98;2.58;;;;;;;27.82;53.61;101663.16;5134122;27;20042;-87
2021/11/06 09:06:53;;;;;;;10.15;1.98;;;;;;;27.83;53.31;101657.63;5134136;27;20049;-87
2021/11/06 09:09:21;;;;;;;6.63;1.90;;;;;;;27.90;53.52;101659.16;5116965;27;20107;-89
2021/11/06 09:11:51;;;;;;;13.00;2.35;;;;;;;27.95;53.54;101656.28;5133976;27;20514;-91
2021/11/06 09:14:21;;;;;;;9.82;2.17;;;;;;;27.87;53.68;101656.59;5116340;27;20497;-81
2021/11/06 09:16:49;;;;;;;10.40;1.85;;;;;;;27.82;53.84;101649.59;5134453;27;20042;-84
2021/11/06 09:19:16;;;;;;;8.77;1.80;;;;;;;27.94;53.54;101649.06;5115791;27;20088;-85
2021/11/06 09:21:44;;;;;;;11.85;1.80;;;;;;;27.96;53.27;101644.47;5116019;27;20092;-83
2021/11/06 09:24:12;;;;;;;10.95;1.83;;;;;;;27.90;52.70;101641.97;5115307;27;20051;-75
2021/11/06 09:26:43;;;;;;;8.02;1.98;;;;;;;28.07;52.70;101647.59;5132797;27;20044;-75
2021/11/06 09:29:12;;;;;;;8.07;2.10;;;;;;;28.25;52.90;101641.41;5132631;27;20035;-76
2021/11/06 09:31:42;;;;;;;7.13;2.13;;;;;;;28.39;52.83;101636.25;5114833;27;20047;-85
2021/11/06 09:34:11;;;;;;;9.23;2.13;;;;;;;28.37;52.63;101635.41;5116032;27;20543;-81
2021/11/06 09:36:42;;;;;;;8.63;2.10;;;;;;;28.39;52.40;101630.81;5133495;27;20039;-88
2021/11/06 09:39:13;;;;;;;9.80;2.03;;;;;;;28.41;52.27;101630.75;5133359;27;20039;-86
2021/11/06 09:41:41;;;;;;;8.65;2.33;;;;;;;28.49;52.03;101629.44;5132736;27;20403;-86
2021/11/06 09:44:10;;;;;;;8.23;1.88;;;;;;;28.51;51.80;101632.09;5132898;27;20039;-87
2021/11/06 09:46:37;;;;;;;8.38;2.15;;;;;;;28.52;51.91;101631.13;5114949;27;20043;-86
2021/11/06 09:49:07;;;;;;;5.32;2.20;;;;;;;28.50;51.79;101631.19;5133142;27;20092;-85
2021/11/06 09:51:35;;;;;;;5.90;1.80;;;;;;;28.50;51.52;101631.19;5114491;27;20538;-86
2021/11/06 09:54:05;;;;;;;11.07;2.28;;;;;;;28.48;51.53;101624.97;5115115;27;20043;-85
2021/11/06 09:56:33;;;;;;;10.88;2.50;;;;;;;28.55;51.84;101625.56;5115291;27;20039;-83
2021/11/06 09:59:01;;;;;;;11.30;2.67;;;;;;;28.54;51.82;101621.97;5132862;27;20175;-84
2021/11/06 10:01:30;;;;;;;12.82;2.78;;;;;;;28.59;51.70;101615.44;5114854;27;20050;-83
2021/11/06 10:03:58;;;;;;;12.48;2.20;;;;;;;28.59;51.31;101620.88;5132824;27;20058;-82
2021/11/06 10:06:29;;;;;;;7.97;2.15;;;;;;;28.54;51.18;101616.53;5114224;28;20047;-82
2021/11/06 10:08:58;;;;;;;5.60;2.50;;;;;;;28.48;51.48;101613.22;5132240;27;20035;-81
2021/11/06 10:11:29;;;;;;;16.10;2.17;;;;;;;28.54;51.08;101611.09;5132294;27;20039;-82
2021/11/06 10:13:59;;;;;;;9.38;2.20;;;;;;;28.51;51.32;101600.34;5132603;27;20066;-82
2021/11/06 10:16:32;;;;;;;6.47;2.20;;;;;;;28.53;51.33;101603.00;5132526;28;20517;-82
2021/11/06 10:19:08;;;;;;;13.38;2.33;;;;;;;28.20;52.06;101594.53;5132640;28;20390;-82
2021/11/06 10:21:39;;;;;;;8.63;2.03;;;;;;;28.20;52.15;101586.41;5132363;28;20475;-81
2021/11/06 10:24:07;;;;;;;9.00;2.28;;;;;;;28.22;51.54;101580.91;5114453;28;20398;-81
2021/11/06 10:26:35;;;;;;;10.82;3.15;;;;;;;28.20;51.35;101589.13;5132326;28;20486;-81
2021/11/06 10:29:09;;;;;;;9.32;2.67;;;;;;;28.27;51.21;101578.84;5132425;28;20100;-82
2021/11/06 10:32:05;;;;;;;14.07;2.47;;;;;;;28.18;50.94;101574.72;5132417;28;20047;-81
2021/11/06 10:34:39;;;;;;;8.63;2.15;;;;;;;28.14;50.47;101570.38;5131757;28;20456;-79
2021/11/06 10:37:12;;;;;;;9.55;2.00;;;;;;;27.89;50.68;101583.22;5114195;28;20042;-80
2021/11/06 10:39:56;;;;;;;10.85;2.17;;;;;;;27.70;51.32;101570.41;5114176;28;20051;-80
2021/11/06 10:42:24;;;;;;;12.07;2.60;;;;;;;27.71;51.78;101574.03;5113774;28;20039;-78
2021/11/06 10:44:52;;;;;;;14.23;2.88;;;;;;;27.55;52.08;101572.91;5132246;28;20612;-79
2021/11/06 10:47:20;;;;;;;10.48;2.30;;;;;;;27.44;52.92;101567.88;5132279;28;20126;-80
2021/11/06 10:49:50;;;;;;;8.93;2.10;;;;;;;27.45;52.88;101572.38;5132315;28;20039;-80
2021/11/06 10:52:20;;;;;;;9.05;2.65;;;;;;;27.54;52.57;101566.63;5113652;28;20074;-80
2021/11/06 10:55:03;;;;;;;10.07;2.22;;;;;;;27.55;53.13;101571.09;5113887;28;20035;-81
2021/11/06 10:57:32;;;;;;;9.60;2.55;;;;;;;27.55;53.05;101565.66;5113580;28;20047;-81
2021/11/06 11:00:12;;;;;;;9.98;2.20;;;;;;;27.38;53.26;101573.56;5113999;28;20116;-80
2021/11/06 11:02:39;;;;;;;11.05;2.50;;;;;;;27.29;53.50;101561.28;5132857;27;20035;-80
2021/11/06 11:05:27;;;;;;;9.27;2.50;;;;;;;27.24;53.72;101570.56;5118007;27;20027;-82
2021/11/06 11:08:05;;;;;;;11.02;2.45;;;;;;;27.02;54.52;101567.81;5135428;27;20063;-81
2021/11/06 11:10:32;;;;;;;8.80;2.70;;;;;;;26.89;54.73;101567.44;5136112;27;20110;-81
2021/11/06 11:13:15;;;;;;;8.88;2.20;;;;;;;26.98;55.05;101561.63;5136062;27;20078;-81
2021/11/06 11:15:45;;;;;;;10.75;2.25;;;;;;;27.18;54.64;101557.22;5135889;27;20118;-82
2021/11/06 11:18:31;;;;;;;9.48;2.10;;;;;;;27.32;54.42;101547.59;5136378;27;20047;-81
2021/11/06 11:21:17;;;;;;;10.05;2.45;;;;;;;27.33;54.31;101546.66;5116617;27;20039;-80
2021/11/06 11:23:47;;;;;;;12.02;2.00;;;;;;;27.18;54.72;101547.25;5117807;27;20038;-86